Weather at Akron Canton Regional Airport

Public forecast

Using degrees Fahrenheit for public forecast. Weather courtesy of forecast.io.

Current aviation weather report (METAR) for Akron Canton Regional Airport

Retrieved 2020/09/24 23:51 UTC (21 minutes ago):

KCAK 242351Z 18004KT 10SM SCT230 20/13 A3002 RMK AO2 SLP160 T02000133 10256 20194 53007

Aviation forecast (TAF) for Akron Canton Regional Airport

Retrieved 2020-09-25 00:30 UTC (0 seconds ago):

TAF KCAK 242328Z 2500/2524 21004KT P6SM SKC FM251000 VRB03KT 4SM BR SCT008 FM251300 15006KT P6SM SKC